Overview Statistics Trail Chart Weather Telemetry Raw packets
 

This is the latest recevied weather packets stored in our database for station/object OE3APM-13. If no packets are shown the sender has not sent any weather packets the latest 10 day(s).

<< 91 92 93 94 95 96 97 >>
Time Temp. Humidity Pressure Rain* Wind** Luminosity Snow
1787943212 18.33° C 87% 1014 hPa 0.51 mm - 0 W/m² -
1787942911 18.33° C 86% 1014.1 hPa 0.76 mm - 0 W/m² -
1787942613 18.89° C 85% 1014.1 hPa 1.02 mm - 0 W/m² -
1787942312 18.89° C 85% 1014.5 hPa 0.76 mm - 0 W/m² -
1787942012 19.44° C 85% 1015.9 hPa 0.76 mm - 0 W/m² -
1787941711 19.44° C 84% 1016.1 hPa 0.51 mm - 0 W/m² -
1787941411 19.44° C 83% 1015.9 hPa 0.51 mm - 0 W/m² -
1787941110 20° C 83% 1016.1 hPa 0.51 mm - 0 W/m² -
1787940812 20.56° C 81% 1016.3 hPa 0.51 mm - 0 W/m² -
1787940512 20.56° C 80% 1016.1 hPa 0.51 mm - 0 W/m² -
1787940212 21.11° C 78% 1015.6 hPa 0.51 mm - 0 W/m² -
1787939912 21.67° C 76% 1015.3 hPa 0.51 mm - 0 W/m² -
1787939613 22.22° C 73% 1015.5 hPa 0.51 mm - 0 W/m² -
1787939312 23.33° C 71% 1014.9 hPa 0.25 mm - 0 W/m² -
1787939011 23.89° C 68% 1015.1 hPa 0 mm - 0 W/m² -
1787938710 25° C 65% 1015.3 hPa 0 mm - 0 W/m² -
1787938412 26.11° C 60% 1015.1 hPa 0 mm - 0 W/m² -
1787938110 26.67° C 54% 1014.5 hPa 0 mm - 0 W/m² -
1787937810 27.22° C 50% 1014 hPa 0 mm - 0 W/m² -
1787937510 27.22° C 50% 1013.7 hPa 0 mm - 0 W/m² -
1787937209 27.22° C 50% 1013.5 hPa 0 mm - 0 W/m² -
1787936906 27.22° C 49% 1013.1 hPa 0 mm - 0 W/m² -
1787936600 27.22° C 49% 1013.1 hPa 0 mm - 0 W/m² -
1787936296 27.78° C 49% 1013 hPa 0 mm - 0 W/m² -
1787935997 27.78° C 48% 1013 hPa 0 mm - 0 W/m² -

* Rain latest hour (hover to see other rain measurements)
** Current wind speed in m/s (hover to see current wind gust speed)